Time;durP1;ratioP1;P1;durP2;ratioP2;P2;SDS_P1;SDS_P2;PMS_P1;PMS_P2;Temp;Humidity;BMP_temperature;BMP_pressure;BME280_temperature;BME280_humidity;BME280_pressure;Samples;Min_cycle;Max_cycle;Signal;HPM_P1;HPM_P2
2021/11/27 00:01:01;;;;;;;8.23;2.00;;;20.20;70.60;;;;;;4111775;28;20059;-63
2021/11/27 00:03:04;;;;;;;6.57;2.08;;;20.20;70.60;;;;;;4105572;28;20551;-64
2021/11/27 00:05:07;;;;;;;6.20;2.15;;;20.20;70.60;;;;;;4102192;28;20146;-62
2021/11/27 00:07:09;;;;;;;7.65;2.20;;;20.20;70.60;;;;;;4100220;28;20133;-63
2021/11/27 00:09:12;;;;;;;5.28;1.83;;;20.20;70.50;;;;;;4104945;28;20060;-63
2021/11/27 00:11:14;;;;;;;8.27;1.98;;;20.20;70.50;;;;;;4087780;28;20107;-62
2021/11/27 00:13:17;;;;;;;8.43;2.45;;;20.20;71.20;;;;;;4107509;28;20049;-61
2021/11/27 00:15:23;;;;;;;6.82;2.30;;;20.20;70.60;;;;;;4106963;28;20052;-61
2021/11/27 00:17:25;;;;;;;7.28;2.10;;;20.20;70.80;;;;;;4087958;28;21038;-61
2021/11/27 00:19:27;;;;;;;7.15;2.28;;;20.20;70.70;;;;;;4094774;28;20049;-61
2021/11/27 00:21:29;;;;;;;10.82;2.42;;;20.20;70.90;;;;;;4099458;28;21383;-61
2021/11/27 00:23:32;;;;;;;8.18;2.17;;;20.20;70.80;;;;;;4097499;28;20757;-60
2021/11/27 00:25:34;;;;;;;5.25;2.38;;;20.20;70.90;;;;;;4100428;28;20091;-58
2021/11/27 00:27:37;;;;;;;6.63;2.17;;;20.20;70.80;;;;;;4104310;28;20225;-61
2021/11/27 00:29:39;;;;;;;7.55;2.78;;;20.20;70.90;;;;;;4105823;28;20065;-61
2021/11/27 00:31:42;;;;;;;10.10;2.65;;;20.20;70.90;;;;;;4083344;28;21977;-62
2021/11/27 00:33:46;;;;;;;7.65;2.30;;;20.20;71.00;;;;;;4099815;28;20064;-64
2021/11/27 00:35:49;;;;;;;8.40;2.30;;;20.20;71.00;;;;;;4104091;28;20052;-62
2021/11/27 00:37:53;;;;;;;11.95;3.10;;;20.20;70.90;;;;;;4084924;28;20053;-62
2021/11/27 00:39:55;;;;;;;6.57;2.13;;;20.30;70.50;;;;;;4103707;28;20119;-63
2021/11/27 00:41:58;;;;;;;4.28;1.83;;;20.20;70.80;;;;;;4107656;28;20765;-60
2021/11/27 00:44:00;;;;;;;8.30;2.35;;;20.20;70.80;;;;;;4112342;28;20057;-61
2021/11/27 00:46:03;;;;;;;7.38;2.03;;;20.30;70.90;;;;;;4104521;28;20948;-63
2021/11/27 00:48:08;;;;;;;7.57;2.10;;;20.20;70.70;;;;;;4101684;28;22338;-64
2021/11/27 00:50:13;;;;;;;8.55;2.50;;;20.30;71.10;;;;;;4102272;28;22221;-64
2021/11/27 00:52:15;;;;;;;5.47;2.03;;;20.20;71.00;;;;;;4105511;28;20041;-66
2021/11/27 00:54:21;;;;;;;5.50;2.15;;;20.20;71.00;;;;;;4108137;28;20091;-61
2021/11/27 00:56:24;;;;;;;7.90;2.97;;;20.20;70.90;;;;;;4109507;28;20394;-61
2021/11/27 00:58:27;;;;;;;8.27;3.15;;;20.20;69.20;;;;;;4110058;28;20056;-63
2021/11/27 01:14:50;;;;;;;9.63;2.83;;;20.30;69.70;;;;;;5035866;22;2469379;-67
2021/11/27 01:16:58;;;;;;;12.95;3.47;;;20.30;70.40;;;;;;5090860;23;20044;-66
2021/11/27 01:19:00;;;;;;;11.77;4.13;;;20.30;70.70;;;;;;5062673;23;20029;-68
2021/11/27 01:21:08;;;;;;;10.23;3.57;;;20.30;71.10;;;;;;5085316;23;20284;-67
2021/11/27 01:23:11;;;;;;;11.05;3.22;;;20.40;71.30;;;;;;5059275;23;20053;-67
2021/11/27 01:25:17;;;;;;;9.57;3.20;;;20.40;71.50;;;;;;5088373;23;20344;-68
2021/11/27 01:27:19;;;;;;;10.07;3.50;;;20.40;71.40;;;;;;5085060;23;20052;-68
2021/11/27 01:29:23;;;;;;;9.57;3.13;;;20.40;71.50;;;;;;5084865;23;20112;-68
2021/11/27 01:31:25;;;;;;;10.20;3.15;;;20.50;71.50;;;;;;5087523;23;20112;-68
2021/11/27 01:33:31;;;;;;;7.55;2.45;;;20.50;71.60;;;;;;5086393;23;20522;-69
2021/11/27 01:35:34;;;;;;;10.70;2.70;;;20.50;71.50;;;;;;5090435;23;20145;-68
2021/11/27 01:37:36;;;;;;;7.25;2.58;;;20.50;71.60;;;;;;5092742;23;20016;-66
2021/11/27 01:39:39;;;;;;;5.93;2.00;;;20.50;71.50;;;;;;5083879;23;20589;-70
2021/11/27 01:41:42;;;;;;;6.57;2.22;;;20.50;71.50;;;;;;5086085;23;20354;-69
2021/11/27 01:43:46;;;;;;;8.75;2.10;;;20.50;71.30;;;;;;5084978;23;20028;-65
2021/11/27 01:45:48;;;;;;;5.90;2.08;;;20.50;71.30;;;;;;5077327;23;20032;-69
2021/11/27 01:47:57;;;;;;;5.82;2.00;;;20.50;71.30;;;;;;5058783;23;20131;-68
2021/11/27 01:50:00;;;;;;;5.68;1.63;;;20.50;71.30;;;;;;5088001;23;20040;-67
2021/11/27 01:52:03;;;;;;;5.80;2.30;;;20.60;71.40;;;;;;5084364;23;20509;-67
2021/11/27 01:54:09;;;;;;;6.47;2.03;;;20.60;71.40;;;;;;5070823;23;20595;-68
2021/11/27 01:56:16;;;;;;;8.88;2.17;;;20.60;71.30;;;;;;5100816;23;20059;-68
2021/11/27 01:58:22;;;;;;;7.82;2.22;;;20.60;71.20;;;;;;5101823;23;20613;-72
2021/11/27 02:00:29;;;;;;;6.25;1.80;;;20.60;71.10;;;;;;5095664;23;20504;-69
2021/11/27 02:02:31;;;;;;;6.60;2.03;;;20.70;71.20;;;;;;5101114;23;20115;-69
2021/11/27 02:04:34;;;;;;;5.40;1.88;;;20.70;71.10;;;;;;5091250;23;20024;-66
2021/11/27 02:06:38;;;;;;;8.75;2.35;;;20.70;71.00;;;;;;5096150;23;20036;-65
2021/11/27 02:08:40;;;;;;;8.07;2.50;;;20.70;70.50;;;;;;5091646;23;20040;-69
2021/11/27 02:10:45;;;;;;;10.57;2.70;;;20.70;70.60;;;;;;5092356;23;20029;-68
2021/11/27 02:12:47;;;;;;;14.27;3.28;;;20.70;70.50;;;;;;5088238;23;20091;-68
2021/11/27 02:14:50;;;;;;;10.63;3.40;;;20.70;70.50;;;;;;5085620;23;20025;-67
2021/11/27 02:16:53;;;;;;;11.80;3.93;;;20.70;70.50;;;;;;5088188;23;20718;-69
2021/11/27 02:18:55;;;;;;;;;;;20.70;70.50;;;;;;5064772;23;20271;-69
2021/11/27 02:21:01;;;;;;;13.68;3.75;;;20.70;70.10;;;;;;5085930;23;20162;-69
2021/11/27 02:23:04;;;;;;;11.55;3.90;;;20.70;69.90;;;;;;5082090;23;20028;-69
2021/11/27 02:25:12;;;;;;;11.85;4.10;;;20.70;69.80;;;;;;5083254;23;20028;-69
2021/11/27 02:27:14;;;;;;;11.10;4.43;;;20.70;69.70;;;;;;5086755;23;20044;-67
2021/11/27 02:29:32;;;;;;;10.68;3.45;;;20.70;69.70;;;;;;5086118;23;20106;-67
2021/11/27 02:31:34;;;;;;;13.20;4.50;;;20.70;69.50;;;;;;5082851;23;20062;-68
2021/11/27 02:33:37;;;;;;;11.75;3.95;;;20.60;69.50;;;;;;5083589;23;20024;-69
2021/11/27 02:35:39;;;;;;;9.10;3.75;;;20.60;69.30;;;;;;5088222;23;20034;-68
2021/11/27 02:37:41;;;;;;;11.07;3.83;;;20.60;69.20;;;;;;5081830;23;20729;-71
2021/11/27 02:39:44;;;;;;;10.00;2.90;;;20.60;69.30;;;;;;5091889;23;20056;-70
2021/11/27 02:41:49;;;;;;;9.05;3.92;;;20.60;69.30;;;;;;5087556;23;20070;-69
2021/11/27 02:43:51;;;;;;;7.65;2.92;;;20.60;69.20;;;;;;5088431;23;20020;-69
2021/11/27 02:45:54;;;;;;;8.93;2.90;;;20.60;69.10;;;;;;5085051;23;20131;-70
2021/11/27 02:47:56;;;;;;;8.30;2.83;;;20.60;69.10;;;;;;5079745;23;20028;-70
2021/11/27 02:50:01;;;;;;;9.35;2.85;;;20.60;69.00;;;;;;5078355;23;20033;-69
2021/11/27 02:52:05;;;;;;;8.70;2.78;;;20.60;69.00;;;;;;5082827;23;20059;-70
2021/11/27 02:54:08;;;;;;;7.43;2.38;;;20.60;68.90;;;;;;5057718;23;20032;-69
2021/11/27 02:56:10;;;;;;;6.88;1.92;;;20.60;69.00;;;;;;5063489;23;20342;-67
2021/11/27 02:58:13;;;;;;;7.80;2.20;;;20.60;69.40;;;;;;5085569;23;20028;-67
2021/11/27 03:00:20;;;;;;;7.63;2.30;;;20.70;69.50;;;;;;5081884;23;20025;-67
2021/11/27 03:02:22;;;;;;;4.05;2.03;;;20.70;69.70;;;;;;5081932;23;20032;-68
2021/11/27 03:04:26;;;;;;;6.25;2.38;;;20.70;69.70;;;;;;5079980;23;20036;-66
2021/11/27 03:06:32;;;;;;;6.00;2.28;;;20.70;70.40;;;;;;5080666;23;20056;-67
2021/11/27 03:08:38;;;;;;;6.97;2.28;;;20.80;69.80;;;;;;5080667;23;20108;-66
2021/11/27 03:10:40;;;;;;;6.03;2.28;;;20.80;70.50;;;;;;5085728;23;20451;-68
2021/11/27 03:12:49;;;;;;;5.28;2.50;;;20.80;69.90;;;;;;5083771;23;20024;-66
2021/11/27 03:14:51;;;;;;;6.45;2.03;;;20.80;69.50;;;;;;5084205;23;20063;-65
2021/11/27 03:16:56;;;;;;;6.77;2.40;;;20.90;69.90;;;;;;5082003;23;20132;-65
2021/11/27 03:18:59;;;;;;;8.05;2.53;;;20.90;70.00;;;;;;5083646;23;20055;-65
2021/11/27 03:21:02;;;;;;;9.70;2.53;;;20.90;69.90;;;;;;5090789;23;20500;-68
2021/11/27 03:23:06;;;;;;;6.43;2.33;;;20.90;69.80;;;;;;5080654;23;20029;-68
2021/11/27 03:25:10;;;;;;;5.75;2.17;;;21.00;69.90;;;;;;5049915;23;20052;-67
2021/11/27 03:27:14;;;;;;;7.35;2.75;;;21.00;69.90;;;;;;5079456;23;20832;-65
2021/11/27 03:29:16;;;;;;;9.35;2.50;;;21.00;69.80;;;;;;5082211;23;20032;-68
2021/11/27 03:31:19;;;;;;;6.07;2.60;;;21.00;69.80;;;;;;5078655;23;20445;-62
2021/11/27 03:33:22;;;;;;;9.23;2.45;;;21.00;69.80;;;;;;5081402;23;20095;-63
2021/11/27 03:35:24;;;;;;;7.35;2.65;;;21.00;69.60;;;;;;5086106;23;20191;-60
2021/11/27 03:37:27;;;;;;;11.17;2.70;;;21.10;69.70;;;;;;5060152;23;20043;-64
2021/11/27 03:39:32;;;;;;;7.80;2.65;;;21.10;69.70;;;;;;5083065;23;20056;-63
2021/11/27 03:41:35;;;;;;;9.23;3.00;;;21.10;69.70;;;;;;5081164;23;20032;-65
2021/11/27 03:43:41;;;;;;;11.80;3.20;;;21.10;69.50;;;;;;5077088;23;20024;-64
2021/11/27 03:45:43;;;;;;;8.70;3.13;;;21.10;69.30;;;;;;5075256;23;20130;-65
2021/11/27 03:48:12;;;;;;;7.43;2.72;;;21.10;69.40;;;;;;5074199;23;20051;-66
2021/11/27 03:50:14;;;;;;;7.80;2.50;;;21.20;69.40;;;;;;5056580;23;20043;-65
2021/11/27 03:52:16;;;;;;;7.13;2.20;;;21.20;69.20;;;;;;5076752;23;21130;-63
2021/11/27 03:54:18;;;;;;;6.35;2.65;;;21.20;69.10;;;;;;5074286;23;21125;-66
2021/11/27 03:56:28;;;;;;;7.82;2.80;;;21.20;68.70;;;;;;5080208;23;20067;-68
2021/11/27 03:58:31;;;;;;;8.50;2.47;;;21.20;68.50;;;;;;5077742;23;20108;-65
2021/11/27 04:34:27;;;;;;;7.25;2.45;;;;;;;;;;5052802;22;2494609;-61
2021/11/27 04:36:29;;;;;;;7.13;2.42;;;;;;;;;;5137787;22;20030;-63
2021/11/27 04:38:31;;;;;;;7.32;2.70;;;;;;;;;;5143330;22;20024;-64
2021/11/27 04:40:35;;;;;;;6.03;2.40;;;;;;;;;;5139564;22;20028;-63
2021/11/27 04:42:37;;;;;;;8.52;2.10;;;;;;;;;;5136763;22;20066;-64
2021/11/27 04:44:39;;;;;;;6.57;2.30;;;;;;;;;;5107265;23;20035;-62
2021/11/27 04:46:41;;;;;;;7.45;2.75;;;;;;;;;;5138249;22;20023;-63
2021/11/27 04:48:43;;;;;;;8.85;2.10;;;;;;;;;;5134654;22;20027;-66
2021/11/27 04:50:45;;;;;;;6.70;2.30;;;;;;;;;;5138205;22;20092;-65
2021/11/27 04:52:47;;;;;;;6.95;2.30;;;;;;;;;;5139418;22;20403;-62
2021/11/27 04:54:49;;;;;;;7.65;2.60;;;;;;;;;;5135324;22;20027;-65
2021/11/27 04:56:51;;;;;;;9.23;2.90;;;;;;;;;;5110729;23;20957;-65
2021/11/27 04:58:53;;;;;;;9.73;2.72;;;;;;;;;;5139377;22;20032;-65
2021/11/27 05:00:56;;;;;;;8.23;2.78;;;;;;;;;;5139877;22;20062;-66
2021/11/27 05:02:58;;;;;;;7.05;2.42;;;;;;;;;;5115240;23;20464;-61
2021/11/27 05:05:00;;;;;;;7.68;2.58;;;;;;;;;;5143100;22;20113;-63
2021/11/27 05:07:02;;;;;;;10.60;4.20;;;;;;;;;;5136499;22;20022;-60
2021/11/27 05:09:04;;;;;;;12.93;7.15;;;;;;;;;;5137326;22;20109;-65
2021/11/27 05:11:06;;;;;;;14.38;9.38;;;;;;;;;;5119643;22;20111;-63
2021/11/27 05:13:08;;;;;;;11.18;9.68;;;;;;;;;;5110715;23;20032;-64
2021/11/27 05:15:11;;;;;;;16.42;10.02;;;;;;;;;;5113611;23;20850;-62
2021/11/27 05:17:13;;;;;;;19.35;9.30;;;;;;;;;;5111120;23;20992;-59
2021/11/27 05:19:15;;;;;;;15.82;8.77;;;;;;;;;;5081751;23;20990;-61
2021/11/27 05:21:17;;;;;;;15.48;9.05;;;;;;;;;;5082201;23;21190;-60
2021/11/27 05:23:19;;;;;;;14.02;8.55;;;;;;;;;;5107593;23;20050;-59
2021/11/27 05:25:21;;;;;;;13.23;7.80;;;;;;;;;;5111552;23;20036;-64
2021/11/27 05:27:24;;;;;;;10.77;7.53;;;;;;;;;;5109613;23;20032;-63
2021/11/27 05:29:30;;;;;;;11.88;7.03;;;;;;;;;;5119476;23;20035;-62
2021/11/27 05:31:32;;;;;;;12.65;6.50;;;;;;;;;;5115593;23;20024;-61
2021/11/27 05:35:55;;;;;;;12.40;6.22;;;;;;;;;;5090202;23;20028;-63
2021/11/27 05:37:57;;;;;;;11.45;5.82;;;;;;;;;;5070519;23;20862;-63
2021/11/27 05:40:04;;;;;;;10.10;5.53;;;;;;;;;;5088005;23;20092;-62
2021/11/27 05:42:06;;;;;;;11.13;5.43;;;;;;;;;;5061069;23;20464;-71
2021/11/27 05:44:08;;;;;;;9.70;5.57;;;;;;;;;;5081909;23;20465;-65
2021/11/27 05:46:10;;;;;;;10.85;5.65;;;;;;;;;;5057295;23;20215;-67
2021/11/27 05:48:12;;;;;;;9.68;6.18;;;;;;;;;;5081457;23;20832;-62
2021/11/27 05:50:14;;;;;;;10.35;5.43;;;;;;;;;;5086574;23;20118;-63
2021/11/27 05:52:20;;;;;;;9.10;4.90;;;;;;;;;;5089530;23;20407;-63
2021/11/27 05:54:22;;;;;;;8.82;4.65;;;;;;;;;;5087603;23;20024;-62
2021/11/27 05:56:25;;;;;;;6.18;4.47;;;;;;;;;;5080869;23;20079;-61
2021/11/27 05:58:27;;;;;;;7.60;4.50;;;;;;;;;;5083293;23;20028;-62
2021/11/27 06:00:29;;;;;;;8.80;4.43;;;;;;;;;;5111245;23;20024;-62
2021/11/27 06:02:31;;;;;;;7.20;4.20;;;;;;;;;;5081709;23;20139;-60
2021/11/27 06:04:33;;;;;;;7.40;3.65;;;;;;;;;;5110331;23;20024;-64
2021/11/27 06:06:35;;;;;;;6.50;3.73;;;;;;;;;;5106830;23;20039;-64
2021/11/27 06:08:37;;;;;;;6.13;3.42;;;;;;;;;;5078165;23;20383;-62
2021/11/27 06:10:39;;;;;;;7.95;3.80;;;;;;;;;;5075785;23;20071;-69
2021/11/27 06:12:42;;;;;;;7.57;3.77;;;;;;;;;;5081397;23;20548;-63
2021/11/27 06:14:44;;;;;;;6.55;3.70;;;;;;;;;;5106214;23;20103;-60
2021/11/27 06:16:46;;;;;;;6.30;3.88;;;21.30;68.10;;;;;;5106709;23;20032;-62
2021/11/27 06:18:49;;;;;;;7.68;4.13;;;21.80;66.20;;;;;;5083373;23;20024;-62
2021/11/27 06:20:51;;;;;;;6.30;4.07;;;21.80;66.40;;;;;;5082908;23;20926;-62
2021/11/27 06:24:54;;;;;;;10.18;5.20;;;21.80;66.30;;;;;;5107831;23;20043;-63
2021/11/27 06:26:57;;;;;;;10.88;7.03;;;21.80;66.20;;;;;;5114689;23;20036;-62
2021/11/27 06:28:59;;;;;;;14.07;10.05;;;21.80;66.20;;;;;;5106389;23;20732;-65
2021/11/27 06:31:02;;;;;;;20.40;14.02;;;21.80;66.10;;;;;;5109146;23;20075;-61
2021/11/27 06:33:04;;;;;;;19.30;15.60;;;21.80;66.10;;;;;;5105553;23;20372;-61
2021/11/27 06:35:07;;;;;;;98.15;78.75;;;21.80;65.90;;;;;;5100201;23;20600;-61
2021/11/27 06:37:09;;;;;;;94.47;77.15;;;21.80;64.50;;;;;;5130006;23;20138;-62
2021/11/27 06:39:11;;;;;;;96.25;72.97;;;21.80;63.70;;;;;;5131211;23;20036;-62
2021/11/27 06:41:13;;;;;;;88.70;77.53;;;;;;;;;;5130179;22;20023;-62
2021/11/27 06:43:16;;;;;;;89.20;72.88;;;;;;;;;;5133222;23;20024;-61
2021/11/27 06:45:18;;;;;;;75.57;60.50;;;;;;;;;;5136208;23;20731;-62
2021/11/27 06:47:21;;;;;;;77.87;65.33;;;;;;;;;;5128612;23;20281;-62
2021/11/27 06:49:24;;;;;;;62.42;53.03;;;;;;;;;;5132214;23;20444;-62
2021/11/27 06:51:26;;;;;;;64.18;54.17;;;;;;;;;;5130551;22;20063;-62
2021/11/27 06:53:28;;;;;;;65.10;50.83;;;;;;;;;;5128525;23;20020;-61
2021/11/27 06:55:30;;;;;;;54.30;42.20;;;;;;;;;;5134070;23;20032;-61
2021/11/27 06:57:33;;;;;;;47.55;39.63;;;;;;;;;;5133393;23;20185;-62
2021/11/27 06:59:35;;;;;;;43.03;35.90;;;;;;;;;;5131121;23;20044;-61
2021/11/27 07:32:15;;;;;;;23.28;15.43;;;21.40;64.30;;;;;;5076690;22;3835003;-64
2021/11/27 07:34:17;;;;;;;23.00;14.63;;;21.40;64.20;;;;;;5113556;23;20024;-63
2021/11/27 07:36:19;;;;;;;18.27;12.75;;;21.40;64.30;;;;;;5086107;23;20795;-63
2021/11/27 07:38:22;;;;;;;18.27;13.13;;;21.30;64.20;;;;;;5113808;23;20628;-63
2021/11/27 07:40:25;;;;;;;17.40;11.80;;;21.30;64.20;;;;;;5139243;23;20304;-63
2021/11/27 07:42:27;;;;;;;15.80;10.90;;;21.30;64.30;;;;;;5138411;23;20040;-63
2021/11/27 07:44:29;;;;;;;17.30;10.93;;;21.30;64.30;;;;;;5139007;23;20233;-63
2021/11/27 07:46:31;;;;;;;14.30;9.40;;;21.30;64.20;;;;;;5135752;23;20027;-62
2021/11/27 07:48:34;;;;;;;13.50;8.70;;;21.30;64.20;;;;;;5114224;23;20784;-63
2021/11/27 07:50:36;;;;;;;13.15;7.82;;;21.20;64.20;;;;;;5117472;23;20059;-63
2021/11/27 07:52:39;;;;;;;10.40;7.10;;;21.20;64.10;;;;;;5112607;23;20925;-63
2021/11/27 07:54:41;;;;;;;15.47;8.97;;;21.20;64.10;;;;;;5113762;23;21124;-63
2021/11/27 07:56:43;;;;;;;12.88;7.03;;;21.20;64.10;;;;;;5111342;23;20079;-62
2021/11/27 07:58:45;;;;;;;11.25;6.75;;;21.20;64.20;;;;;;5113076;23;20405;-62
2021/11/27 08:00:48;;;;;;;13.10;6.00;;;21.10;64.10;;;;;;5113872;23;20028;-63
2021/11/27 08:02:50;;;;;;;12.43;6.60;;;21.10;64.10;;;;;;5117351;23;20099;-62
2021/11/27 08:04:52;;;;;;;9.48;5.60;;;21.10;64.10;;;;;;5142002;23;20032;-62
2021/11/27 08:06:54;;;;;;;9.20;5.75;;;21.10;64.10;;;;;;5139584;23;20059;-63
2021/11/27 08:08:56;;;;;;;11.40;4.78;;;21.10;64.10;;;;;;5112146;23;20428;-59
2021/11/27 08:10:58;;;;;;;8.85;5.65;;;21.10;64.20;;;;;;5139798;23;20767;-61
2021/11/27 08:13:00;;;;;;;9.98;4.80;;;21.00;64.20;;;;;;5083644;23;20036;-62
2021/11/27 08:15:04;;;;;;;9.40;5.07;;;21.10;64.90;;;;;;5110667;23;20102;-61
2021/11/27 08:17:06;;;;;;;12.13;4.82;;;21.00;64.30;;;;;;5106855;23;20042;-62
2021/11/27 08:19:08;;;;;;;9.23;4.78;;;21.00;64.20;;;;;;5106346;23;21172;-62
2021/11/27 08:21:11;;;;;;;9.75;4.28;;;21.00;64.30;;;;;;5102720;23;20160;-61
2021/11/27 08:23:13;;;;;;;9.10;4.22;;;21.00;64.40;;;;;;5102431;23;20070;-61
2021/11/27 08:25:15;;;;;;;9.93;4.55;;;21.00;64.40;;;;;;5104031;23;20110;-61
2021/11/27 08:27:19;;;;;;;8.27;3.83;;;20.90;64.30;;;;;;5107529;23;20046;-62
2021/11/27 08:29:21;;;;;;;7.18;3.80;;;20.90;64.30;;;;;;5104147;23;20029;-61
2021/11/27 08:31:23;;;;;;;7.30;3.45;;;20.90;64.20;;;;;;5105318;23;20021;-60
2021/11/27 08:33:25;;;;;;;7.07;3.33;;;20.90;64.30;;;;;;5080503;23;20033;-61
2021/11/27 08:35:28;;;;;;;8.35;3.40;;;20.90;64.20;;;;;;5101225;23;20411;-61
2021/11/27 08:37:30;;;;;;;7.53;3.47;;;20.90;64.20;;;;;;5132789;23;20043;-61
2021/11/27 08:39:32;;;;;;;8.68;3.80;;;20.90;64.30;;;;;;5136412;23;20028;-61
2021/11/27 08:41:35;;;;;;;7.80;3.50;;;20.90;64.30;;;;;;5085164;23;20029;-61
2021/11/27 08:43:38;;;;;;;8.07;3.10;;;20.80;64.30;;;;;;5081430;23;20124;-62
2021/11/27 08:45:40;;;;;;;6.22;3.38;;;20.80;64.40;;;;;;5132083;23;20067;-61
2021/11/27 08:47:43;;;;;;;6.78;2.70;;;20.80;64.20;;;;;;5082052;23;20028;-62
2021/11/27 08:49:45;;;;;;;8.70;3.30;;;20.80;64.20;;;;;;5106658;23;20035;-61
2021/11/27 08:51:47;;;;;;;6.80;2.70;;;20.80;64.20;;;;;;5131804;23;20170;-65
2021/11/27 08:53:49;;;;;;;6.40;3.17;;;20.80;64.20;;;;;;5106336;23;20987;-62
2021/11/27 08:55:51;;;;;;;7.72;2.72;;;20.80;64.30;;;;;;5104347;23;20535;-64
2021/11/27 08:57:53;;;;;;;7.00;3.00;;;20.70;64.20;;;;;;5099260;23;20151;-63
2021/11/27 08:59:55;;;;;;;7.57;2.83;;;20.70;64.20;;;;;;5074205;23;20688;-63
2021/11/27 09:02:01;;;;;;;7.40;2.63;;;20.70;64.10;;;;;;5074939;23;20953;-63
2021/11/27 09:04:06;;;;;;;6.47;2.35;;;20.70;64.10;;;;;;5104635;23;20051;-63
2021/11/27 09:06:09;;;;;;;7.07;2.60;;;20.70;64.10;;;;;;5076147;23;20037;-63
2021/11/27 09:08:11;;;;;;;7.68;2.92;;;20.70;64.60;;;;;;5074684;23;20025;-63
2021/11/27 09:10:14;;;;;;;6.37;2.53;;;20.70;64.10;;;;;;5105987;23;20032;-60
2021/11/27 09:12:19;;;;;;;5.80;2.67;;;20.70;64.20;;;;;;5132925;23;20058;-59
2021/11/27 09:14:22;;;;;;;5.35;2.00;;;20.70;64.60;;;;;;5078535;23;21070;-61
2021/11/27 09:16:24;;;;;;;6.78;2.10;;;20.70;64.80;;;;;;5131141;23;20031;-61
2021/11/27 09:18:29;;;;;;;7.10;2.90;;;20.70;65.10;;;;;;5102882;23;20626;-61
2021/11/27 09:20:32;;;;;;;7.63;2.30;;;20.70;65.10;;;;;;5130488;23;20043;-63
2021/11/27 09:22:34;;;;;;;5.38;2.08;;;20.70;65.30;;;;;;5129836;23;20024;-60
2021/11/27 09:24:37;;;;;;;6.22;2.50;;;20.70;65.40;;;;;;5133400;23;20460;-60
2021/11/27 09:26:42;;;;;;;3.85;2.10;;;20.70;65.50;;;;;;5083125;23;20033;-63
2021/11/27 09:28:44;;;;;;;7.65;2.50;;;20.70;65.60;;;;;;5107828;23;20095;-61
2021/11/27 09:30:49;;;;;;;8.70;2.22;;;20.70;65.50;;;;;;5106425;23;20028;-61
2021/11/27 09:32:54;;;;;;;8.05;2.60;;;20.80;65.60;;;;;;5104288;23;20024;-60
2021/11/27 09:34:58;;;;;;;17.25;3.05;;;20.80;65.80;;;;;;5103246;23;20032;-62
2021/11/27 09:37:12;;;;;;;8.02;2.50;;;20.80;65.80;;;;;;5082716;23;20042;-65
2021/11/27 09:39:17;;;;;;;6.22;2.80;;;20.80;66.00;;;;;;5083738;23;20596;-61
2021/11/27 09:41:28;;;;;;;4.68;1.77;;;20.80;66.00;;;;;;5081356;23;20416;-60
2021/11/27 09:43:37;;;;;;;4.78;2.10;;;20.80;66.00;;;;;;5114521;23;20406;-60
2021/11/27 09:45:44;;;;;;;7.40;2.25;;;20.80;66.10;;;;;;5109552;23;20149;-65
2021/11/27 09:47:46;;;;;;;7.13;1.83;;;20.80;66.00;;;;;;5111200;23;20039;-68
2021/11/27 09:49:56;;;;;;;4.32;1.70;;;20.90;66.10;;;;;;5088166;23;20036;-64
2021/11/27 09:51:58;;;;;;;5.28;1.80;;;20.90;66.10;;;;;;5107811;23;20161;-61
2021/11/27 09:54:05;;;;;;;4.03;1.67;;;20.90;66.10;;;;;;5104215;23;20151;-60
2021/11/27 09:56:08;;;;;;;5.72;1.92;;;20.90;66.10;;;;;;5133460;23;20495;-59
2021/11/27 09:58:14;;;;;;;9.38;1.60;;;20.90;66.10;;;;;;5131348;23;20028;-61
2021/11/27 10:21:23;;;;;;;5.22;1.60;;;21.10;65.90;;;;;;4997954;22;2475626;-61
2021/11/27 10:23:32;;;;;;;4.90;2.08;;;21.10;66.00;;;;;;5086986;23;20235;-59
2021/11/27 10:25:37;;;;;;;6.03;1.83;;;21.10;66.00;;;;;;5089929;23;20690;-61
2021/11/27 10:27:39;;;;;;;5.45;2.08;;;21.10;66.00;;;;;;5085159;23;20139;-57
2021/11/27 10:29:42;;;;;;;6.47;1.95;;;21.10;66.00;;;;;;5078852;23;20887;-60
2021/11/27 10:31:46;;;;;;;4.88;1.70;;;21.10;66.10;;;;;;5079571;23;20032;-61
2021/11/27 10:34:00;;;;;;;3.38;1.77;;;21.10;66.00;;;;;;5080387;23;20777;-59
2021/11/27 10:36:06;;;;;;;4.97;2.10;;;21.10;66.10;;;;;;5081051;23;20095;-59
2021/11/27 10:38:08;;;;;;;7.60;1.70;;;21.10;66.00;;;;;;5084650;23;20123;-58
2021/11/27 10:40:16;;;;;;;4.38;1.63;;;21.10;66.20;;;;;;5085814;23;20024;-59
2021/11/27 10:42:20;;;;;;;6.78;2.03;;;21.10;66.20;;;;;;5054605;23;20033;-59
2021/11/27 10:44:34;;;;;;;6.30;2.05;;;21.10;66.20;;;;;;5083902;23;20063;-60
2021/11/27 10:46:39;;;;;;;5.60;1.70;;;21.20;66.30;;;;;;5082688;23;20075;-59
2021/11/27 10:48:41;;;;;;;4.93;2.15;;;21.10;66.20;;;;;;5083214;23;20143;-59
2021/11/27 10:50:50;;;;;;;5.73;2.13;;;21.10;66.20;;;;;;5081577;23;20438;-59
2021/11/27 10:52:54;;;;;;;6.20;2.03;;;21.10;67.00;;;;;;5080649;23;20111;-58
2021/11/27 10:54:58;;;;;;;8.98;2.03;;;21.10;66.30;;;;;;5081663;23;20044;-59
2021/11/27 10:57:00;;;;;;;10.88;1.83;;;21.10;66.10;;;;;;5081286;23;20047;-60
2021/11/27 10:59:07;;;;;;;7.03;1.70;;;21.10;66.00;;;;;;5075127;23;20029;-61
2021/11/27 11:01:09;;;;;;;8.00;2.30;;;21.10;66.00;;;;;;5056560;23;20500;-61
2021/11/27 11:03:45;;;;;;;9.60;1.90;;;21.10;66.10;;;;;;5056225;23;20056;-58
2021/11/27 11:05:47;;;;;;;6.78;2.00;;;21.10;66.10;;;;;;5032719;23;20028;-53
2021/11/27 11:07:57;;;;;;;8.98;2.17;;;21.10;65.90;;;;;;5079850;23;20044;-56
2021/11/27 11:10:07;;;;;;;8.10;2.80;;;21.10;65.70;;;;;;5043814;23;20121;-58
2021/11/27 11:12:10;;;;;;;7.55;2.58;;;21.10;65.80;;;;;;5055646;23;20029;-53
2021/11/27 11:14:28;;;;;;;8.02;2.25;;;21.10;65.30;;;;;;5051600;23;20475;-57
2021/11/27 11:16:34;;;;;;;7.63;2.10;;;21.10;65.00;;;;;;5054719;23;20030;-59
2021/11/27 11:18:36;;;;;;;6.78;2.13;;;21.00;64.60;;;;;;5052292;23;20036;-57
2021/11/27 11:20:45;;;;;;;5.28;2.30;;;21.00;64.50;;;;;;5049935;23;20025;-53
2021/11/27 11:23:10;;;;;;;9.38;2.25;;;21.00;64.50;;;;;;5050552;23;20025;-56
2021/11/27 11:25:12;;;;;;;8.05;2.35;;;21.00;64.70;;;;;;5048711;23;20441;-56
2021/11/27 11:27:35;;;;;;;6.10;2.35;;;21.00;64.60;;;;;;5048157;23;20115;-56
2021/11/27 11:29:45;;;;;;;6.25;2.10;;;21.00;65.40;;;;;;5051356;23;20029;-57
2021/11/27 11:31:47;;;;;;;5.20;1.83;;;21.00;64.60;;;;;;5053402;23;20620;-60
2021/11/27 11:33:55;;;;;;;6.70;2.13;;;20.90;64.50;;;;;;5047425;23;20998;-59
2021/11/27 11:35:57;;;;;;;6.18;2.20;;;20.90;64.60;;;;;;5047990;23;20976;-56
2021/11/27 11:38:00;;;;;;;6.35;1.95;;;20.90;64.50;;;;;;5048782;23;20665;-59
2021/11/27 11:40:03;;;;;;;7.25;2.10;;;20.90;64.80;;;;;;5050421;23;20362;-56
2021/11/27 11:42:05;;;;;;;;;;;20.90;64.80;;;;;;5049878;23;20036;-58
2021/11/27 11:44:08;;;;;;;5.72;2.13;;;20.90;65.40;;;;;;5050863;23;19979;-61
2021/11/27 11:46:10;;;;;;;7.20;2.43;;;20.90;64.70;;;;;;5030810;23;20033;-60
2021/11/27 11:48:28;;;;;;;4.50;2.28;;;20.80;64.60;;;;;;5051183;23;21053;-59
2021/11/27 11:50:34;;;;;;;5.10;2.20;;;20.80;64.60;;;;;;5048928;23;20489;-60
2021/11/27 11:52:56;;;;;;;8.18;2.63;;;20.80;64.40;;;;;;5052228;23;20113;-55
2021/11/27 11:55:05;;;;;;;4.88;1.90;;;20.80;64.90;;;;;;5052262;23;20474;-58
2021/11/27 11:57:12;;;;;;;4.45;1.75;;;20.80;65.00;;;;;;5048344;23;20703;-57
2021/11/27 11:59:25;;;;;;;4.97;2.00;;;20.80;65.10;;;;;;5051206;23;20400;-60
2021/11/27 12:01:29;;;;;;;5.53;2.00;;;20.70;65.00;;;;;;5051093;23;20032;-58
2021/11/27 12:03:38;;;;;;;8.52;2.05;;;20.70;65.00;;;;;;5048264;23;20288;-59
2021/11/27 12:05:56;;;;;;;9.63;2.65;;;20.70;65.10;;;;;;5052447;23;20144;-59
2021/11/27 12:07:58;;;;;;;4.80;1.92;;;20.70;65.40;;;;;;5053430;23;20032;-60
2021/11/27 12:10:27;;;;;;;5.47;2.17;;;20.70;65.50;;;;;;5056636;23;20149;-56
2021/11/27 12:12:29;;;;;;;6.22;2.45;;;20.70;65.50;;;;;;5053292;23;20053;-59
2021/11/27 12:14:33;;;;;;;6.00;2.10;;;20.70;65.50;;;;;;5051515;23;20033;-59
2021/11/27 12:17:01;;;;;;;6.97;2.33;;;20.70;65.60;;;;;;5051147;23;20449;-60
2021/11/27 12:19:10;;;;;;;6.78;2.08;;;20.70;65.60;;;;;;5056909;23;20042;-56
2021/11/27 12:21:14;;;;;;;4.90;2.20;;;20.70;65.60;;;;;;5059229;23;20033;-60
2021/11/27 12:23:42;;;;;;;4.88;1.95;;;20.60;65.60;;;;;;5029494;23;20025;-61
2021/11/27 12:25:44;;;;;;;5.55;2.00;;;20.60;65.60;;;;;;5027040;23;20034;-55
2021/11/27 12:28:04;;;;;;;6.43;2.03;;;20.60;65.90;;;;;;5028988;23;20029;-56
2021/11/27 12:30:09;;;;;;;6.50;2.10;;;20.60;65.80;;;;;;5029127;23;20537;-53
2021/11/27 12:32:11;;;;;;;5.50;2.25;;;20.60;65.70;;;;;;5027433;23;20137;-50
2021/11/27 12:34:37;;;;;;;6.10;2.53;;;20.60;65.80;;;;;;5048351;23;20033;-56
2021/11/27 12:36:42;;;;;;;4.40;2.20;;;20.60;65.80;;;;;;5057239;23;20029;-59
2021/11/27 12:39:08;;;;;;;4.95;1.98;;;20.60;65.80;;;;;;5008458;23;20022;-57
2021/11/27 12:41:25;;;;;;;5.85;2.17;;;20.60;65.80;;;;;;5030674;23;20026;-59
2021/11/27 12:43:28;;;;;;;5.70;2.55;;;20.60;65.80;;;;;;5034274;23;20034;-57
2021/11/27 12:45:40;;;;;;;4.97;1.90;;;20.60;66.00;;;;;;5056851;23;21021;-60